createdAt,value
2022-08-09T00:01:24.888Z,98182.38
2022-08-09T00:04:06.131Z,98182.78
2022-08-09T00:06:23.091Z,98176.81
2022-08-09T00:08:33.012Z,98181.34
2022-08-09T00:10:41.528Z,98178.94
2022-08-09T00:12:52.504Z,98179.06
2022-08-09T00:15:06.638Z,98187.81
2022-08-09T00:18:05.734Z,98178.94
2022-08-09T00:19:42.997Z,98177.66
2022-08-09T00:21:57.066Z,98168.44
2022-08-09T00:24:05.400Z,98177.06
2022-08-09T00:26:14.489Z,98176.75
2022-08-09T00:28:27.200Z,98176.88
2022-08-09T00:30:35.216Z,98182.34
2022-08-09T00:32:43.206Z,98179.94
2022-08-09T00:34:54.480Z,98177.19
2022-08-09T00:37:02.441Z,98177.00
2022-08-09T00:39:10.948Z,98170.72
2022-08-09T00:44:16.716Z,98178.31
2022-08-09T00:44:20.482Z,98184.63
2022-08-09T00:46:57.054Z,98183.31
2022-08-09T00:49:02.303Z,98184.84
2022-08-09T00:51:13.027Z,98184.34
2022-08-09T00:53:23.943Z,98183.88
2022-08-09T00:56:03.380Z,98182.94
2022-08-09T00:58:00.704Z,98186.16
2022-08-09T01:00:21.589Z,98189.47
2022-08-09T01:02:34.133Z,98187.56
2022-08-09T01:04:51.860Z,98194.03
2022-08-09T01:07:09.157Z,98196.00
2022-08-09T01:09:36.642Z,98188.72
2022-08-09T01:11:59.752Z,98191.06
2022-08-09T01:14:16.251Z,98188.13
2022-08-09T01:16:29.890Z,98198.88
2022-08-09T01:18:40.637Z,98197.78
2022-08-09T01:21:03.074Z,98198.25
2022-08-09T01:24:03.566Z,98197.69
2022-08-09T01:25:58.686Z,98199.28
2022-08-09T01:28:12.354Z,98201.47
2022-08-09T01:30:28.665Z,98195.41
2022-08-09T01:32:47.481Z,98207.97
2022-08-09T01:34:58.067Z,98209.75
2022-08-09T01:37:09.358Z,98207.97
2022-08-09T01:39:19.299Z,98198.41
2022-08-09T01:41:33.521Z,98206.47
2022-08-09T01:43:51.875Z,98206.97
2022-08-09T01:46:00.481Z,98207.81
2022-08-09T01:48:10.117Z,98209.28
2022-08-09T01:50:30.000Z,98211.75
2022-08-09T01:52:46.718Z,98205.84
2022-08-09T01:55:01.908Z,98220.41
2022-08-09T01:57:14.870Z,98215.88
2022-08-09T01:59:32.456Z,98217.97
2022-08-09T02:01:58.094Z,98219.03
2022-08-09T02:04:09.790Z,98213.91
2022-08-09T02:06:45.296Z,98218.53
2022-08-09T02:09:02.219Z,98227.06
2022-08-09T02:11:17.188Z,98225.72
2022-08-09T02:13:40.346Z,98227.41
2022-08-09T02:15:55.263Z,98226.19
2022-08-09T02:18:10.555Z,98224.72
2022-08-09T02:20:26.540Z,98233.13
2022-08-09T02:22:45.706Z,98228.13
2022-08-09T02:24:57.087Z,98228.47
2022-08-09T02:27:08.948Z,98226.41
2022-08-09T02:29:23.708Z,98231.78
2022-08-09T02:31:38.830Z,98223.00
2022-08-09T02:34:06.406Z,98231.03
2022-08-09T02:36:21.128Z,98226.25
2022-08-09T02:38:32.062Z,98224.53
2022-08-09T02:40:44.254Z,98228.91
2022-08-09T02:42:54.207Z,98223.81
2022-08-09T02:45:07.031Z,98227.56
2022-08-09T02:47:19.632Z,98222.34
2022-08-09T02:49:38.964Z,98220.50
2022-08-09T02:51:54.192Z,98230.13
2022-08-09T02:54:05.669Z,98229.41
2022-08-09T02:56:15.498Z,98229.91
2022-08-09T02:58:36.039Z,98219.91
2022-08-09T03:00:58.702Z,98224.88
2022-08-09T03:03:10.441Z,98224.16
2022-08-09T03:05:20.260Z,98223.31
2022-08-09T03:07:28.769Z,98218.91
2022-08-09T03:09:42.779Z,98225.75
2022-08-09T03:12:09.780Z,98219.66
2022-08-09T03:14:26.579Z,98221.94
2022-08-09T03:16:41.636Z,98224.78
2022-08-09T03:18:55.723Z,98217.69
2022-08-09T03:21:05.279Z,98221.31
2022-08-09T03:23:14.762Z,98216.44
2022-08-09T03:25:56.948Z,98220.69
2022-08-09T03:28:26.206Z,98221.16
2022-08-09T03:30:33.394Z,98231.25
2022-08-09T03:32:45.711Z,98224.50
2022-08-09T03:34:56.436Z,98229.72
2022-08-09T03:37:10.795Z,98231.38
2022-08-09T03:39:37.803Z,98232.34
2022-08-09T03:41:48.727Z,98232.88
2022-08-09T03:44:08.163Z,98238.34
2022-08-09T03:46:19.835Z,98242.72
2022-08-09T03:48:30.924Z,98247.91
2022-08-09T03:50:44.213Z,98251.22
2022-08-09T03:52:53.803Z,98251.34
2022-08-09T03:55:07.713Z,98245.75
2022-08-09T03:57:20.535Z,98249.53
2022-08-09T03:59:53.230Z,98246.22
2022-08-09T04:01:59.531Z,98242.91
2022-08-09T04:04:14.753Z,98246.53
2022-08-09T04:06:25.777Z,98249.56
2022-08-09T04:08:33.677Z,98245.56
2022-08-09T04:10:41.699Z,98252.06
2022-08-09T04:12:51.562Z,98249.25
2022-08-09T04:15:01.598Z,98256.97
2022-08-09T04:17:10.909Z,98248.00
2022-08-09T04:19:42.782Z,98252.72
2022-08-09T04:21:53.944Z,98249.69
2022-08-09T04:24:01.740Z,98249.97
2022-08-09T04:26:11.481Z,98254.75
2022-08-09T04:28:31.424Z,98255.84
2022-08-09T04:30:44.967Z,98260.00
2022-08-09T04:32:54.185Z,98265.00
2022-08-09T04:35:02.148Z,98267.81
2022-08-09T04:37:13.908Z,98267.91
2022-08-09T04:39:23.987Z,98272.56
2022-08-09T04:41:43.441Z,98274.41
2022-08-09T04:44:05.054Z,98282.66
2022-08-09T04:46:36.524Z,98291.16
2022-08-09T04:48:50.464Z,98299.63
2022-08-09T04:51:06.339Z,98312.19
2022-08-09T04:53:17.085Z,98319.59
2022-08-09T04:55:25.912Z,98337.47
2022-08-09T04:57:58.828Z,98339.88
2022-08-09T05:00:05.015Z,98336.50
2022-08-09T05:02:14.185Z,98348.03
2022-08-09T05:04:30.833Z,98361.94
2022-08-09T05:06:39.308Z,98368.50
2022-08-09T05:09:00.451Z,98388.16
2022-08-09T05:11:09.434Z,98383.88
2022-08-09T05:13:19.892Z,98397.28
2022-08-09T05:15:38.433Z,98401.97
2022-08-09T05:18:38.601Z,98397.34
2022-08-09T05:20:19.057Z,98400.44
2022-08-09T05:22:33.562Z,98399.75
2022-08-09T05:24:57.444Z,98396.94
2022-08-09T05:27:09.033Z,98399.66
2022-08-09T05:29:24.054Z,98394.50
2022-08-09T05:31:37.107Z,98387.41
2022-08-09T05:33:54.363Z,98388.97
2022-08-09T05:36:04.898Z,98384.47
2022-08-09T05:38:21.635Z,98383.09
2022-08-09T05:40:34.408Z,98382.09
2022-08-09T05:42:42.294Z,98387.66
2022-08-09T05:44:50.481Z,98392.91
2022-08-09T05:46:59.157Z,98384.44
2022-08-09T05:49:07.375Z,98395.56
2022-08-09T05:51:42.701Z,98392.78
2022-08-09T05:53:57.692Z,98404.78
2022-08-09T05:56:09.254Z,98410.75
2022-08-09T05:58:25.835Z,98413.69
2022-08-09T06:00:35.332Z,98413.69
2022-08-09T06:02:46.629Z,98410.38
2022-08-09T06:04:55.833Z,98412.25
2022-08-09T06:07:03.802Z,98413.78
2022-08-09T06:09:23.147Z,98412.44
2022-08-09T06:11:57.314Z,98418.34
2022-08-09T06:14:07.009Z,98413.13
2022-08-09T06:16:18.550Z,98421.94
2022-08-09T06:18:27.769Z,98418.28
2022-08-09T06:20:37.264Z,98420.44
2022-08-09T06:22:52.025Z,98394.16
2022-08-09T06:25:01.127Z,98391.25
2022-08-09T06:27:16.182Z,98380.00
2022-08-09T06:29:29.440Z,98357.75
2022-08-09T06:31:39.666Z,98349.47
2022-08-09T06:34:06.717Z,98357.22
2022-08-09T06:36:15.420Z,98352.84
2022-08-09T06:38:32.201Z,98358.00
2022-08-09T06:40:47.887Z,98352.91
2022-08-09T06:43:07.793Z,98350.38
2022-08-09T06:46:05.575Z,98361.56
2022-08-09T06:47:48.677Z,98361.34
2022-08-09T06:50:14.025Z,98370.03
2022-08-09T06:52:25.205Z,98365.91
2022-08-09T06:54:33.200Z,98356.56
2022-08-09T06:56:46.173Z,98360.38
2022-08-09T07:00:52.842Z,98366.00
2022-08-09T07:01:27.472Z,98356.38
2022-08-09T07:03:53.153Z,98362.53
2022-08-09T07:06:06.028Z,98359.03
2022-08-09T07:08:16.077Z,98362.41
2022-08-09T07:10:29.746Z,98366.81
2022-08-09T07:12:40.953Z,98360.75
2022-08-09T07:14:53.634Z,98364.72
2022-08-09T07:17:04.000Z,98368.13
2022-08-09T07:19:23.045Z,98367.94
2022-08-09T07:21:31.769Z,98366.25
2022-08-09T07:23:56.758Z,98372.72
2022-08-09T07:26:06.796Z,98371.97
2022-08-09T07:28:18.953Z,98375.28
2022-08-09T07:30:32.962Z,98374.28
2022-08-09T07:32:41.076Z,98370.78
2022-08-09T07:34:52.296Z,98377.09
2022-08-09T07:37:02.521Z,98375.38
2022-08-09T07:39:11.884Z,98369.63
2022-08-09T07:41:32.870Z,98369.38
2022-08-09T07:43:49.917Z,98381.38
2022-08-09T07:46:08.357Z,98373.91
2022-08-09T07:48:25.311Z,98374.41
2022-08-09T07:50:40.685Z,98366.81
2022-08-09T07:53:02.815Z,98371.50
2022-08-09T07:55:16.754Z,98372.72
2022-08-09T07:57:33.854Z,98372.44
2022-08-09T07:59:52.083Z,98372.66
2022-08-09T08:02:26.672Z,98365.31
2022-08-09T08:04:40.989Z,98370.63
2022-08-09T08:07:00.157Z,98372.44
2022-08-09T08:09:39.774Z,98374.72
2022-08-09T08:12:09.954Z,98376.13
2022-08-09T08:14:13.639Z,98374.91
2022-08-09T08:16:31.865Z,98379.06
2022-08-09T08:18:43.246Z,98375.59
2022-08-09T08:20:54.196Z,98377.03
2022-08-09T08:23:16.763Z,98374.47
2022-08-09T08:25:25.462Z,98373.53
2022-08-09T08:27:52.064Z,98371.47
2022-08-09T08:30:04.337Z,98378.53
2022-08-09T08:32:12.927Z,98379.31
2022-08-09T08:34:36.481Z,98380.59
2022-08-09T08:36:45.696Z,98372.59
2022-08-09T08:38:56.255Z,98374.13
2022-08-09T08:41:05.759Z,98379.91
2022-08-09T08:43:14.498Z,98377.22
2022-08-09T08:45:37.289Z,98380.25
2022-08-09T08:47:47.808Z,98372.47
2022-08-09T08:50:02.860Z,98379.47
2022-08-09T08:52:20.325Z,98378.00
2022-08-09T08:54:40.548Z,98386.63
2022-08-09T08:56:52.780Z,98380.78
2022-08-09T08:59:00.818Z,98380.38
2022-08-09T09:01:20.819Z,98384.13
2022-08-09T09:03:38.227Z,98389.16
2022-08-09T09:05:59.118Z,98389.31
2022-08-09T09:08:30.065Z,98381.31
2022-08-09T09:10:42.293Z,98381.16
2022-08-09T09:12:51.899Z,98378.03
2022-08-09T09:15:06.713Z,98375.19
2022-08-09T09:17:16.265Z,98372.53
2022-08-09T09:19:41.607Z,98371.81
2022-08-09T09:22:03.939Z,98365.59
2022-08-09T09:24:21.544Z,98366.84
2022-08-09T09:26:29.875Z,98366.16
2022-08-09T09:29:04.284Z,98366.00
2022-08-09T09:31:09.543Z,98363.97
2022-08-09T09:33:44.973Z,98355.34
2022-08-09T09:36:11.611Z,98353.31
2022-08-09T09:38:48.316Z,98360.81
2022-08-09T09:40:56.352Z,98356.19
2022-08-09T09:43:06.452Z,98353.19
2022-08-09T09:45:26.910Z,98355.78
2022-08-09T09:47:42.138Z,98363.03
2022-08-09T09:50:14.058Z,98351.59
2022-08-09T09:52:36.147Z,98358.59
2022-08-09T09:54:48.763Z,98356.81
2022-08-09T09:58:00.961Z,98346.09
2022-08-09T09:59:45.092Z,98352.16
2022-08-09T10:02:02.633Z,98353.84
2022-08-09T10:04:22.862Z,98350.69
2022-08-09T10:06:46.795Z,98335.50
2022-08-09T10:09:21.680Z,98357.25
2022-08-09T10:11:59.105Z,98336.44
2022-08-09T10:14:03.150Z,98344.44
2022-08-09T10:16:57.102Z,98352.22
2022-08-09T10:18:54.417Z,98352.72
2022-08-09T10:21:10.187Z,98346.13
2022-08-09T10:23:22.076Z,98339.97
2022-08-09T10:25:34.917Z,98349.59
2022-08-09T10:28:02.109Z,98342.78
2022-08-09T10:32:03.812Z,98339.75
2022-08-09T10:32:42.609Z,98341.31
2022-08-09T10:34:51.562Z,98339.38
2022-08-09T10:37:02.136Z,98338.50
2022-08-09T10:39:15.397Z,98334.19
2022-08-09T10:41:26.216Z,98342.56
2022-08-09T10:43:58.727Z,98334.09
2022-08-09T10:46:54.294Z,98323.53
2022-08-09T10:49:12.000Z,98326.25
2022-08-09T10:51:41.036Z,98318.25
2022-08-09T10:53:58.375Z,98317.81
2022-08-09T10:56:23.285Z,98318.81
2022-08-09T10:58:37.437Z,98336.22
2022-08-09T11:01:35.853Z,98322.50
2022-08-09T11:03:46.911Z,98326.72
2022-08-09T11:06:26.273Z,98326.22
2022-08-09T11:08:47.502Z,98327.69
2022-08-09T11:11:08.585Z,98326.38
2022-08-09T11:13:49.396Z,98325.88
2022-08-09T11:16:04.521Z,98321.53
2022-08-09T11:18:49.418Z,98327.44
2022-08-09T11:21:01.477Z,98322.22
2022-08-09T11:23:10.515Z,98317.72
2022-08-09T11:25:19.268Z,98325.94
2022-08-09T11:28:08.032Z,98311.13
2022-08-09T11:30:04.702Z,98319.69
2022-08-09T11:32:44.076Z,98310.50
2022-08-09T11:34:54.616Z,98310.28
2022-08-09T11:37:07.122Z,98315.22
2022-08-09T11:39:16.660Z,98310.78
2022-08-09T11:41:37.468Z,98315.06
2022-08-09T11:43:52.148Z,98309.16
2022-08-09T11:46:01.584Z,98314.34
2022-08-09T11:48:26.802Z,98318.28
2022-08-09T11:52:48.826Z,98322.50
2022-08-09T11:54:01.597Z,98310.13
2022-08-09T11:56:41.468Z,98304.13
2022-08-09T11:58:53.994Z,98308.75
2022-08-09T12:01:08.891Z,98293.84
2022-08-09T12:03:55.099Z,98289.78
2022-08-09T12:05:58.375Z,98291.00
2022-08-09T12:08:12.241Z,98294.63
2022-08-09T12:10:39.626Z,98305.44
2022-08-09T12:12:52.925Z,98291.19
2022-08-09T12:15:08.519Z,98285.78
2022-08-09T12:17:28.257Z,98285.81
2022-08-09T12:19:47.815Z,98285.72
2022-08-09T12:22:03.913Z,98294.44
2022-08-09T12:24:14.183Z,98291.69
2022-08-09T12:26:25.896Z,98284.63
2022-08-09T12:29:13.811Z,98279.94
2022-08-09T12:31:02.967Z,98278.16
2022-08-09T12:33:19.953Z,98290.97
2022-08-09T12:35:37.828Z,98288.63
2022-08-09T12:37:51.586Z,98280.66
2022-08-09T12:40:09.251Z,98278.72
2022-08-09T12:42:18.020Z,98279.63
2022-08-09T12:44:26.266Z,98280.28
2022-08-09T12:46:50.082Z,98277.31
2022-08-09T12:49:00.246Z,98272.88
2022-08-09T12:51:11.410Z,98267.94
2022-08-09T12:53:37.681Z,98267.22
2022-08-09T12:56:15.327Z,98267.84
2022-08-09T12:58:24.459Z,98274.22
2022-08-09T13:00:44.884Z,98268.22
2022-08-09T13:02:57.360Z,98267.16
2022-08-09T13:05:06.635Z,98262.50
2022-08-09T13:07:28.475Z,98261.38
2022-08-09T13:09:55.938Z,98271.16
2022-08-09T13:12:10.278Z,98271.53
2022-08-09T13:14:42.308Z,98262.78
2022-08-09T13:16:54.686Z,98265.22
2022-08-09T13:19:10.429Z,98263.88
2022-08-09T13:22:36.844Z,98258.97
2022-08-09T13:24:15.736Z,98256.47
2022-08-09T13:26:42.679Z,98250.72
2022-08-09T13:29:06.417Z,98252.13
2022-08-09T13:32:17.314Z,98244.19
2022-08-09T13:33:53.263Z,98246.19
2022-08-09T13:36:39.505Z,98241.94
2022-08-09T13:38:55.805Z,98244.91
2022-08-09T13:41:57.708Z,98230.34
2022-08-09T13:43:53.656Z,98236.91
2022-08-09T13:46:43.688Z,98239.66
2022-08-09T13:48:29.921Z,98240.03
2022-08-09T13:50:38.018Z,98235.50
2022-08-09T13:52:47.676Z,98239.13
2022-08-09T13:55:00.100Z,98240.50
2022-08-09T13:57:14.434Z,98244.41
2022-08-09T13:59:42.089Z,98236.44
2022-08-09T14:02:01.186Z,98247.81
2022-08-09T14:04:11.551Z,98229.72
2022-08-09T14:06:26.612Z,98227.44
2022-08-09T14:08:38.225Z,98226.59
2022-08-09T14:10:52.599Z,98230.03
2022-08-09T14:13:03.880Z,98231.28
2022-08-09T14:16:10.241Z,98229.06
2022-08-09T14:18:16.755Z,98239.81
2022-08-09T14:20:15.987Z,98228.38
2022-08-09T14:22:28.184Z,98236.69
2022-08-09T14:24:36.153Z,98223.53
2022-08-09T14:26:51.241Z,98225.50
2022-08-09T14:29:07.494Z,98226.47
2022-08-09T14:31:16.265Z,98220.66
2022-08-09T14:33:24.082Z,98233.06
2022-08-09T14:35:38.764Z,98228.63
2022-08-09T14:38:02.641Z,98212.84
2022-08-09T14:40:13.866Z,98213.69
2022-08-09T14:42:31.618Z,98218.88
2022-08-09T14:44:59.631Z,98218.03
2022-08-09T14:47:26.315Z,98217.81
2022-08-09T14:49:40.022Z,98213.69
2022-08-09T14:51:58.355Z,98217.06
2022-08-09T14:54:09.260Z,98221.66
2022-08-09T14:56:17.483Z,98215.00
2022-08-09T14:58:29.579Z,98208.28
2022-08-09T15:00:42.330Z,98209.59
2022-08-09T15:02:52.200Z,98210.09
2022-08-09T15:05:00.112Z,98215.91
2022-08-09T15:07:10.174Z,98212.41
2022-08-09T15:09:30.391Z,98209.22
2022-08-09T15:11:49.760Z,98214.09
2022-08-09T15:14:04.228Z,98212.03
2022-08-09T15:16:15.477Z,98208.84
2022-08-09T15:18:27.266Z,98200.88
2022-08-09T15:21:55.261Z,98208.16
2022-08-09T15:24:02.278Z,98201.38
2022-08-09T15:25:41.314Z,98198.44
2022-08-09T15:28:00.620Z,98194.09
2022-08-09T15:30:59.835Z,98203.50
2022-08-09T15:32:42.091Z,98200.56
2022-08-09T15:34:53.671Z,98199.00
2022-08-09T15:37:03.879Z,98201.13
2022-08-09T15:39:12.536Z,98200.09
2022-08-09T15:41:31.798Z,98190.44
2022-08-09T15:43:41.874Z,98189.22
2022-08-09T15:45:52.018Z,98187.22
2022-08-09T15:48:29.297Z,98196.16
2022-08-09T15:50:43.496Z,98187.78
2022-08-09T15:52:55.020Z,98183.16
2022-08-09T15:55:20.095Z,98188.25
2022-08-09T15:57:34.179Z,98186.97
2022-08-09T15:59:48.435Z,98181.25
2022-08-09T16:02:01.625Z,98181.25
2022-08-09T16:04:13.764Z,98188.75
2022-08-09T16:06:34.816Z,98190.22
2022-08-09T16:08:44.423Z,98190.19
2022-08-09T16:10:57.667Z,98183.88
2022-08-09T16:13:18.590Z,98185.75
2022-08-09T16:16:10.160Z,98187.41
2022-08-09T16:17:57.767Z,98187.66
2022-08-09T16:20:15.437Z,98182.56
2022-08-09T16:22:23.633Z,98177.13
2022-08-09T16:24:34.291Z,98185.41
2022-08-09T16:26:42.705Z,98185.09
2022-08-09T16:28:56.740Z,98180.44
2022-08-09T16:31:05.548Z,98175.06
2022-08-09T16:33:24.318Z,98176.31
2022-08-09T16:35:57.024Z,98169.81
2022-08-09T16:38:04.032Z,98170.84
2022-08-09T16:40:14.420Z,98173.00
2022-08-09T16:42:38.215Z,98167.66
2022-08-09T16:44:46.586Z,98171.22
2022-08-09T16:47:04.044Z,98180.00
2022-08-09T16:50:30.528Z,98173.25
2022-08-09T16:51:53.969Z,98184.19
2022-08-09T16:54:26.275Z,98171.56
2022-08-09T16:56:31.480Z,98182.94
2022-08-09T16:58:42.744Z,98184.63
2022-08-09T17:00:57.851Z,98181.84
2022-08-09T17:03:05.747Z,98178.41
2022-08-09T17:05:19.999Z,98176.94
2022-08-09T17:08:43.524Z,98180.53
2022-08-09T17:10:03.886Z,98178.16
2022-08-09T17:12:12.217Z,98176.22
2022-08-09T17:14:28.004Z,98177.28
2022-08-09T17:16:38.019Z,98177.28
2022-08-09T17:18:46.345Z,98178.06
2022-08-09T17:20:55.980Z,98175.91
2022-08-09T17:23:10.580Z,98182.34
2022-08-09T17:25:23.873Z,98183.59
2022-08-09T17:27:31.875Z,98174.94
2022-08-09T17:29:41.235Z,98179.50
2022-08-09T17:31:53.600Z,98179.66
2022-08-09T17:34:01.491Z,98178.81
2022-08-09T17:36:14.703Z,98179.81
2022-08-09T17:38:32.635Z,98174.56
2022-08-09T17:40:47.620Z,98176.00
2022-08-09T17:42:59.769Z,98186.44
2022-08-09T17:45:27.106Z,98178.19
2022-08-09T17:47:49.253Z,98183.75
2022-08-09T17:50:07.445Z,98194.41
2022-08-09T17:52:22.650Z,98186.22
2022-08-09T17:54:33.262Z,98183.41
2022-08-09T17:56:43.561Z,98185.22
2022-08-09T17:58:52.959Z,98188.50
2022-08-09T18:01:01.537Z,98183.69
2022-08-09T18:03:10.185Z,98190.50
2022-08-09T18:05:23.619Z,98188.53
2022-08-09T18:07:48.700Z,98194.09
2022-08-09T18:10:05.087Z,98193.25
2022-08-09T18:12:19.383Z,98204.28
2022-08-09T18:14:29.398Z,98202.47
2022-08-09T18:16:51.201Z,98195.91
2022-08-09T18:20:56.854Z,98197.69
2022-08-09T18:21:41.212Z,98205.56
2022-08-09T18:24:10.375Z,98207.72
2022-08-09T18:26:20.975Z,98196.59
2022-08-09T18:30:42.771Z,98197.84
2022-08-09T18:31:01.298Z,98200.53
2022-08-09T18:33:12.755Z,98206.25
2022-08-09T18:35:59.234Z,98207.63
2022-08-09T18:37:54.658Z,98206.44
2022-08-09T18:40:02.904Z,98209.72
2022-08-09T18:42:15.697Z,98211.16
2022-08-09T18:44:25.466Z,98212.44
2022-08-09T18:46:47.971Z,98223.41
2022-08-09T18:49:04.335Z,98220.25
2022-08-09T18:51:12.780Z,98223.00
2022-08-09T18:53:22.542Z,98225.09
2022-08-09T18:55:45.555Z,98228.06
2022-08-09T18:58:06.960Z,98235.06
2022-08-09T19:00:20.432Z,98237.50
2022-08-09T19:02:33.148Z,98237.97
2022-08-09T19:04:41.147Z,98250.25
2022-08-09T19:06:55.243Z,98251.94
2022-08-09T19:09:07.656Z,98243.47
2022-08-09T19:11:23.817Z,98246.72
2022-08-09T19:13:51.197Z,98247.94
2022-08-09T19:15:59.627Z,98249.09
2022-08-09T19:18:16.888Z,98253.56
2022-08-09T19:20:25.229Z,98262.06
2022-08-09T19:22:34.058Z,98255.78
2022-08-09T19:25:12.084Z,98266.50
2022-08-09T19:27:10.881Z,98259.72
2022-08-09T19:29:24.596Z,98257.84
2022-08-09T19:31:45.306Z,98263.63
2022-08-09T19:33:56.849Z,98259.41
2022-08-09T19:36:11.636Z,98264.69
2022-08-09T19:38:25.214Z,98266.38
2022-08-09T19:40:39.056Z,98265.91
2022-08-09T19:42:57.271Z,98263.34
2022-08-09T19:45:25.886Z,98264.19
2022-08-09T19:47:47.355Z,98258.94
2022-08-09T19:50:48.207Z,98264.34
2022-08-09T19:52:23.719Z,98266.75
2022-08-09T19:54:32.107Z,98270.63
2022-08-09T19:56:44.647Z,98277.44
2022-08-09T19:59:18.592Z,98271.00
2022-08-09T20:01:28.553Z,98271.47
2022-08-09T20:04:24.115Z,98273.97
2022-08-09T20:06:29.764Z,98280.91
2022-08-09T20:08:39.274Z,98278.03
2022-08-09T20:10:47.888Z,98278.13
2022-08-09T20:12:56.570Z,98289.41
2022-08-09T20:16:31.840Z,98272.78
2022-08-09T20:17:41.466Z,98281.00
2022-08-09T20:19:56.741Z,98284.34
2022-08-09T20:22:04.860Z,98278.56
2022-08-09T20:24:29.128Z,98275.06
2022-08-09T20:26:37.925Z,98266.78
2022-08-09T20:28:48.222Z,98272.44
2022-08-09T20:30:58.665Z,98266.53
2022-08-09T20:33:18.356Z,98274.50
2022-08-09T20:35:27.158Z,98278.56
2022-08-09T20:38:23.423Z,98282.59
2022-08-09T20:40:15.152Z,98274.44
2022-08-09T20:42:59.411Z,98274.03
2022-08-09T20:45:59.345Z,98270.19
2022-08-09T20:47:47.876Z,98277.59
2022-08-09T20:49:59.204Z,98274.69
2022-08-09T20:52:07.826Z,98270.34
2022-08-09T20:54:22.068Z,98276.13
2022-08-09T20:56:32.728Z,98272.88
2022-08-09T20:58:43.503Z,98281.19
2022-08-09T21:01:14.077Z,98279.41
2022-08-09T21:03:19.975Z,98283.19
2022-08-09T21:05:53.797Z,98287.03
2022-08-09T21:08:00.385Z,98275.84
2022-08-09T21:10:11.984Z,98282.22
2022-08-09T21:12:20.455Z,98280.44
2022-08-09T21:14:31.139Z,98285.22
2022-08-09T21:16:39.314Z,98284.53
2022-08-09T21:20:02.550Z,98293.34
2022-08-09T21:21:18.046Z,98287.78
2022-08-09T21:23:47.278Z,98290.75
2022-08-09T21:25:59.439Z,98295.19
2022-08-09T21:28:11.813Z,98296.03
2022-08-09T21:30:22.389Z,98292.50
2022-08-09T21:32:33.829Z,98288.47
2022-08-09T21:34:48.225Z,98289.25
2022-08-09T21:36:59.318Z,98286.59
2022-08-09T21:39:21.849Z,98294.84
2022-08-09T21:42:05.685Z,98296.03
2022-08-09T21:44:05.037Z,98299.69
2022-08-09T21:46:13.676Z,98301.00
2022-08-09T21:48:21.652Z,98295.75
2022-08-09T21:50:35.793Z,98300.56
2022-08-09T21:52:50.718Z,98291.66
2022-08-09T21:55:04.314Z,98292.75
2022-08-09T21:57:37.071Z,98300.56
2022-08-09T21:59:42.748Z,98300.56
2022-08-09T22:02:00.476Z,98301.88
2022-08-09T22:04:09.382Z,98314.19
2022-08-09T22:06:17.930Z,98303.41
2022-08-09T22:08:32.522Z,98297.53
2022-08-09T22:11:00.388Z,98302.63
2022-08-09T22:13:11.608Z,98296.00
2022-08-09T22:15:23.543Z,98295.34
2022-08-09T22:17:46.236Z,98298.16
2022-08-09T22:19:58.983Z,98295.22
2022-08-09T22:22:08.108Z,98294.88
2022-08-09T22:24:24.244Z,98300.94
2022-08-09T22:26:37.631Z,98299.44
2022-08-09T22:28:53.007Z,98300.88
2022-08-09T22:31:02.370Z,98297.16
2022-08-09T22:33:10.536Z,98298.16
2022-08-09T22:35:59.854Z,98297.63
2022-08-09T22:37:46.260Z,98301.19
2022-08-09T22:39:58.983Z,98299.66
2022-08-09T22:42:21.082Z,98289.81
2022-08-09T22:44:32.811Z,98296.00
2022-08-09T22:48:15.792Z,98300.88
2022-08-09T22:49:10.652Z,98297.69
2022-08-09T22:51:23.934Z,98303.28
2022-08-09T22:53:44.394Z,98301.31
2022-08-09T22:56:30.373Z,98304.66
2022-08-09T22:58:32.834Z,98301.56
2022-08-09T23:00:41.265Z,98299.69
2022-08-09T23:02:50.118Z,98305.97
2022-08-09T23:04:58.603Z,98312.59
2022-08-09T23:08:21.062Z,98317.22
2022-08-09T23:09:46.891Z,98304.94
2022-08-09T23:11:57.302Z,98306.41
2022-08-09T23:14:09.918Z,98306.00
2022-08-09T23:16:20.647Z,98303.22
2022-08-09T23:18:28.505Z,98297.97
2022-08-09T23:20:36.377Z,98302.16
2022-08-09T23:22:44.549Z,98291.81
2022-08-09T23:24:52.478Z,98294.44
2022-08-09T23:27:03.107Z,98290.88
2022-08-09T23:29:13.856Z,98287.78
2022-08-09T23:31:21.978Z,98283.66
2022-08-09T23:33:29.878Z,98274.50
2022-08-09T23:36:05.148Z,98276.31
2022-08-09T23:38:05.575Z,98275.28
2022-08-09T23:40:14.666Z,98287.78
2022-08-09T23:42:25.079Z,98285.34
2022-08-09T23:44:33.024Z,98277.56
2022-08-09T23:46:41.429Z,98281.13
2022-08-09T23:48:51.545Z,98277.59
2022-08-09T23:50:59.376Z,98288.97
2022-08-09T23:53:07.522Z,98285.16
2022-08-09T23:55:18.247Z,98282.44
2022-08-09T23:57:31.092Z,98287.13
